»·PEaware :: N899M KSNA-KSBA

N899M :: KSNA-KSBA

FLIGHT INFORMATION

Flight Status: Arrived
Operator: Privately registered:
United States
More flights under this callsign
Pilot: Robert C. (30425)
Aircraft: Unknown
(EPIC)
More flights by this aircraft type
Origin: KSNA John Wayne-Orange Co
United States
Destination: KSBA Santa Barbara Mun
United States
More flights between these airports :: More routes between these airports
Route: +CHANL3 SXC V208 VTU VTU282 KWANG
File this flight plan on PilotEdge
Remarks: TEC ROUTE CSTP28
Altitude:
(Current/Filed)
8,000ft
Speed:
(Current/Filed)
250kts
Departed: 07-Oct-20 12:50 PM
Arrived: 07-Oct-20 01:39 PM
Distance/Time
Traveled:
108nm/0:48
Distance/Time
To Go:
Arrived

Flight Plot

Page will automatically refresh every two minutes.

Flight plan parsing failed; only flown route is shown


Map Options




Map Legend


Flown Route
Filed Route
Departure Airport
Arrival Airport
Navaid (VOR, NDB)
Fix

Horizontal Profiles

Position Reports

Time Latitude Longitude Heading Altitude Ground
Speed
07-Oct-20 12:36 33.675618 -117.871070 40 59ft 0kts
07-Oct-20 12:37 33.675618 -117.871070 40 59ft 0kts
07-Oct-20 12:38 33.675618 -117.871070 40 59ft 0kts
07-Oct-20 12:39 33.675618 -117.871070 40 59ft 0kts
07-Oct-20 12:40 33.675618 -117.871070 40 59ft 0kts
07-Oct-20 12:41 33.675618 -117.871070 40 59ft 0kts
07-Oct-20 12:42 33.675618 -117.871070 40 59ft 0kts
07-Oct-20 12:43 33.675631 -117.871037 77 59ft 0kts
07-Oct-20 12:44 33.676275 -117.869999 27 59ft 10kts
07-Oct-20 12:45 33.676730 -117.869454 26 59ft 0kts
07-Oct-20 12:46 33.679116 -117.868178 20 59ft 10kts
07-Oct-20 12:47 33.681251 -117.866558 106 59ft 0kts
07-Oct-20 12:48 33.681251 -117.866558 106 59ft 0kts
07-Oct-20 12:49 33.675704 -117.868628 206 60ft 112kts
07-Oct-20 12:50 33.630674 -117.889048 188 1167ft 220kts
07-Oct-20 12:51 33.567414 -117.904511 210 2198ft 246kts
07-Oct-20 12:52 33.510485 -117.949117 212 3767ft 238kts
07-Oct-20 12:53 33.456304 -117.992402 212 5663ft 231kts
07-Oct-20 12:54 33.403059 -118.034926 212 7559ft 230kts
07-Oct-20 12:55 33.346233 -118.081196 224 8036ft 267kts
07-Oct-20 12:56 33.341563 -118.166905 276 8053ft 254kts
07-Oct-20 12:57 33.352139 -118.246762 276 8061ft 234kts
07-Oct-20 12:58 33.362107 -118.322020 276 8071ft 227kts
07-Oct-20 12:59 33.372038 -118.397539 275 8072ft 231kts
07-Oct-20 13:00 33.405948 -118.463618 306 8037ft 240kts
07-Oct-20 13:01 33.448874 -118.525008 306 8035ft 240kts
07-Oct-20 13:02 33.491965 -118.586459 306 8036ft 242kts
07-Oct-20 13:03 33.535754 -118.649026 306 8017ft 244kts
07-Oct-20 13:04 33.579649 -118.711802 306 8019ft 245kts
07-Oct-20 13:05 33.623621 -118.774824 306 8013ft 246kts
07-Oct-20 13:06 33.667975 -118.838521 306 7998ft 248kts
07-Oct-20 13:07 33.712478 -118.902534 307 7986ft 251kts
07-Oct-20 13:08 33.757374 -118.967221 308 7980ft 252kts
07-Oct-20 13:09 33.811381 -119.016059 350 7984ft 253kts
07-Oct-20 13:10 33.881317 -119.025001 354 7981ft 253kts
07-Oct-20 13:11 33.951477 -119.032383 355 7981ft 252kts
07-Oct-20 13:12 34.021360 -119.039711 355 7982ft 252kts
07-Oct-20 13:13 34.091201 -119.047046 355 7981ft 252kts
07-Oct-20 13:14 34.137424 -119.104014 297 7975ft 250kts
07-Oct-20 13:15 34.169098 -119.178425 296 8026ft 249kts
07-Oct-20 13:16 34.200356 -119.253095 296 8025ft 248kts
07-Oct-20 13:17 34.230492 -119.325230 296 8028ft 239kts
07-Oct-20 13:18 34.260729 -119.397782 296 8027ft 243kts
07-Oct-20 13:19 34.291387 -119.471526 296 8025ft 245kts
07-Oct-20 13:20 34.311516 -119.549176 272 8025ft 245kts
07-Oct-20 13:21 34.314956 -119.631805 272 8021ft 246kts
07-Oct-20 13:22 34.318318 -119.714895 271 8018ft 246kts
07-Oct-20 13:23 34.321590 -119.797902 271 8014ft 240kts
07-Oct-20 13:25 34.324675 -119.875765 272 8015ft 224kts
07-Oct-20 13:26 34.327681 -119.950214 272 8016ft 217kts
07-Oct-20 13:27 34.330658 -120.023013 272 8017ft 214kts
07-Oct-20 13:28 34.333745 -120.094651 272 7829ft 209kts
07-Oct-20 13:29 34.337061 -120.162962 274 6312ft 196kts
07-Oct-20 13:30 34.377095 -120.164069 52 4558ft 196kts
07-Oct-20 13:31 34.410603 -120.113915 52 2832ft 187kts
07-Oct-20 13:32 34.423280 -120.062786 95 2098ft 141kts
07-Oct-20 13:33 34.424066 -120.015412 90 2116ft 139kts
07-Oct-20 13:34 34.425092 -119.969434 90 1933ft 114kts
07-Oct-20 13:35 34.425871 -119.932891 90 1320ft 110kts
07-Oct-20 13:36 34.426663 -119.895537 90 708ft 107kts
07-Oct-20 13:37 34.427579 -119.862813 92 170ft 85kts
07-Oct-20 13:38 34.427718 -119.840671 89 13ft 51kts
07-Oct-20 13:39 34.427078 -119.835258 198 12ft 0kts
07-Oct-20 13:40 34.426751 -119.835747 256 12ft 6kts
07-Oct-20 13:41 34.425070 -119.837616 119 11ft 5kts
07-Oct-20 13:42 34.424835 -119.837025 124 12ft 0kts
07-Oct-20 13:42 34.424835 -119.837025 124 12ft 0kts
07-Oct-20 13:44 34.424835 -119.837025 124 12ft 0kts
07-Oct-20 13:44 34.424835 -119.837025 124 12ft 0kts
07-Oct-20 13:45 34.424835 -119.837025 124 12ft 0kts
07-Oct-20 13:46 34.424835 -119.837025 124 12ft 0kts
07-Oct-20 13:47 34.424835 -119.837025 124 12ft 0kts
07-Oct-20 13:48 34.424835 -119.837025 124 12ft 0kts
07-Oct-20 13:49 34.424835 -119.837025 124 12ft 0kts
07-Oct-20 13:50 34.424835 -119.837025 124 12ft 0kts
07-Oct-20 13:51 34.424835 -119.837025 124 12ft 0kts

Navigation Log

Ident Type
Flight plan parsing failed, navigation log unavailable